Time;durP1;ratioP1;P1;durP2;ratioP2;P2;SDS_P1;SDS_P2;PMS_P1;PMS_P2;Temp;Humidity;BMP_temperature;BMP_pressure;BME280_temperature;BME280_humidity;BME280_pressure;Samples;Min_cycle;Max_cycle;Signal;HPM_P1;HPM_P2
2023/10/14 00:01:24;;;;;;;16.38;2.83;;;;;;;;;;4979694;28;20181;-68
2023/10/14 00:03:50;;;;;;;14.32;3.45;;;;;;;;;;4974694;28;20085;-69
2023/10/14 00:06:17;;;;;;;12.75;3.05;;;;;;;;;;4979324;28;20132;-68
2023/10/14 00:08:54;;;;;;;9.20;2.72;;;;;;;;;;4982887;28;20055;-69
2023/10/14 00:11:21;;;;;;;11.60;2.58;;;;;;;;;;4981946;28;20023;-68
2023/10/14 00:13:49;;;;;;;10.85;2.90;;;;;;;;;;4978841;28;20027;-69
2023/10/14 00:18:52;;;;;;;10.60;2.75;;;;;;;;;;4977598;28;20030;-68
2023/10/14 00:21:18;;;;;;;10.77;2.72;;;;;;;;;;4979842;28;20046;-66
2023/10/14 00:23:43;;;;;;;13.20;2.95;;;;;;;;;;4963932;28;20104;-69
2023/10/14 00:26:16;;;;;;;7.88;2.65;;;;;;;;;;4971566;28;20023;-67
2023/10/14 00:28:44;;;;;;;7.57;2.70;;;;;;;;;;4981902;28;20038;-65
2023/10/14 00:31:10;;;;;;;;;;;;;;;;;;4969681;28;20127;-67
2023/10/14 00:33:37;;;;;;;9.88;3.10;;;;;;;;;;4977303;28;20051;-67
2023/10/14 00:36:03;;;;;;;14.55;2.42;;;;;;;;;;4979287;28;20076;-68
2023/10/14 00:38:34;;;;;;;9.10;3.05;;;;;;;;;;4977375;28;20037;-66
2023/10/14 00:40:59;;;;;;;7.28;2.35;;;;;;;;;;4979858;28;20034;-66
2023/10/14 00:43:24;;;;;;;11.77;2.85;;;;;;;;;;4969544;28;20030;-66
2023/10/14 00:45:50;;;;;;;36.90;3.90;;;;;;;;;;4975775;28;20066;-65
2023/10/14 00:48:19;;;;;;;9.95;2.58;;;;;;;;;;4982837;28;20032;-69
2023/10/14 00:50:44;;;;;;;9.20;3.08;;;;;;;;;;4973304;28;20027;-67
2023/10/14 00:53:10;;;;;;;18.80;2.80;;;;;;;;;;4986126;28;20026;-66
2023/10/14 00:58:12;;;;;;;15.32;2.95;;;;;;;;;;4976022;28;20051;-67
2023/10/14 01:00:38;;;;;;;7.82;2.45;;;;;;;;;;4975878;28;20031;-70
2023/10/14 01:03:09;;;;;;;8.07;2.92;;;;;;;;;;4972718;28;20030;-65
2023/10/14 01:05:36;;;;;;;12.85;3.10;;;;;;;;;;4973254;28;20019;-65
2023/10/14 01:08:03;;;;;;;10.52;3.03;;;;;;;;;;4981025;28;20049;-65
2023/10/14 01:10:29;;;;;;;9.10;2.60;;;;;;;;;;4976195;28;20032;-68
2023/10/14 01:12:55;;;;;;;6.68;2.60;;;;;;;;;;4973455;28;20114;-69
2023/10/14 01:15:21;;;;;;;10.15;2.78;;;;;;;;;;4983969;28;20401;-68
2023/10/14 01:17:53;;;;;;;14.05;3.70;;;;;;;;;;4979921;28;20478;-68
2023/10/14 01:20:26;;;;;;;9.88;2.50;;;;;;;;;;4986800;28;20029;-67
2023/10/14 01:22:58;;;;;;;9.55;2.92;;;;;;;;;;4977244;28;20370;-68
2023/10/14 01:25:30;;;;;;;10.70;3.22;;;;;;;;;;4977225;28;20401;-67
2023/10/14 01:27:59;;;;;;;12.55;2.95;;;;;;;;;;4980340;28;20049;-65
2023/10/14 01:30:32;;;;;;;;;;;;;;;;;;5006489;23;20037;-66
2023/10/14 01:33:11;;;;;;;7.82;2.50;;;;;;;;;;5012660;28;19909;-65
2023/10/14 01:35:41;;;;;;;8.20;2.90;;;;;;;;;;5017436;28;20048;-67
2023/10/14 01:38:06;;;;;;;9.65;2.75;;;;;;;;;;5012539;28;20473;-66
2023/10/14 01:43:15;;;;;;;18.85;3.97;;;;;;;;;;5005532;28;20084;-67
2023/10/14 01:48:25;;;;;;;15.48;3.20;;;;;;;;;;5000801;28;20021;-67
2023/10/14 01:51:09;;;;;;;7.93;3.10;;;;;;;;;;5001428;28;20029;-66
2023/10/14 01:53:38;;;;;;;15.85;3.80;;;;;;;;;;5009894;28;20033;-65
2023/10/14 01:56:06;;;;;;;11.75;3.47;;;;;;;;;;5001445;28;20086;-67
2023/10/14 01:58:36;;;;;;;10.70;3.00;;;;;;;;;;5008293;28;20097;-67
2023/10/14 02:01:04;;;;;;;12.35;3.30;;;;;;;;;;5008079;28;20049;-66
2023/10/14 02:03:32;;;;;;;10.93;3.20;;;;;;;;;;5008955;28;20038;-67
2023/10/14 02:05:58;;;;;;;7.25;2.88;;;;;;;;;;5007555;28;20026;-66
2023/10/14 02:08:24;;;;;;;11.88;3.08;;;;;;;;;;5005604;28;20025;-67
2023/10/14 02:10:50;;;;;;;16.30;3.83;;;;;;;;;;5005185;28;20025;-64
2023/10/14 02:13:16;;;;;;;7.20;2.95;;;;;;;;;;5004695;28;20096;-67
2023/10/14 02:15:46;;;;;;;11.70;3.50;;;;;;;;;;4987417;28;20061;-67
2023/10/14 02:18:12;;;;;;;7.03;3.05;;;;;;;;;;5004988;28;20482;-66
2023/10/14 02:20:45;;;;;;;12.32;3.25;;;;;;;;;;5007750;28;20029;-63
2023/10/14 02:23:11;;;;;;;15.43;3.38;;;;;;;;;;4998047;28;20097;-67
2023/10/14 02:25:37;;;;;;;13.52;3.35;;;;;;;;;;5004864;28;20022;-67
2023/10/14 02:28:05;;;;;;;9.73;3.38;;;;;;;;;;5000408;28;20517;-68
2023/10/14 02:30:32;;;;;;;15.10;3.25;;;;;;;;;;5004672;28;20017;-65
2023/10/14 02:32:57;;;;;;;11.75;3.50;;;;;;;;;;5005883;28;20057;-68
2023/10/14 02:35:24;;;;;;;13.43;3.70;;;;;;;;;;5002070;28;20050;-67
2023/10/14 02:37:50;;;;;;;18.17;3.50;;;;;;;;;;5001218;28;20097;-66
2023/10/14 02:40:24;;;;;;;10.73;3.33;;;;;;;;;;5008479;28;20028;-66
2023/10/14 02:42:51;;;;;;;12.20;3.13;;;;;;;;;;5000488;28;20050;-66
2023/10/14 02:45:16;;;;;;;10.93;3.67;;;;;;;;;;5007051;28;20532;-67
2023/10/14 02:47:41;;;;;;;12.52;3.47;;;;;;;;;;5014381;28;20033;-67
2023/10/14 02:50:11;;;;;;;18.05;3.95;;;;;;;;;;5015645;28;20033;-67
2023/10/14 02:52:38;;;;;;;12.25;3.22;;;;;;;;;;5003774;28;20532;-67
2023/10/14 02:55:18;;;;;;;14.68;3.50;;;;;;;;;;5003260;28;20080;-66
2023/10/14 02:57:46;;;;;;;14.38;3.35;;;;;;;;;;5003512;28;20165;-64
2023/10/14 03:00:13;;;;;;;8.75;3.63;;;;;;;;;;5003657;28;20094;-64
2023/10/14 03:05:41;;;;;;;20.13;4.00;;;;;;;;;;4968431;28;20034;-65
2023/10/14 03:08:10;;;;;;;18.98;3.83;;;;;;;;;;5004872;28;20023;-67
2023/10/14 03:10:59;;;;;;;16.58;4.55;;;;;;;;;;5000926;28;20157;-67
2023/10/14 03:13:25;;;;;;;14.88;4.05;;;;;;;;;;5004357;28;20050;-67
2023/10/14 03:15:54;;;;;;;17.40;3.38;;;;;;;;;;5005806;28;20565;-64
2023/10/14 03:18:19;;;;;;;22.40;3.92;;;;;;;;;;5007467;28;20040;-67
2023/10/14 03:21:00;;;;;;;12.98;3.75;;;;;;;;;;5010974;28;20014;-68
2023/10/14 03:23:27;;;;;;;12.23;3.45;;;;;;;;;;5009098;28;20425;-66
2023/10/14 03:25:54;;;;;;;12.05;3.85;;;;;;;;;;5002862;28;20477;-67
2023/10/14 03:28:20;;;;;;;22.77;4.90;;;;;;;;;;5007016;28;20025;-67
2023/10/14 03:30:46;;;;;;;32.33;4.45;;;;;;;;;;5002852;28;20057;-68
2023/10/14 03:33:19;;;;;;;16.58;3.83;;;;;;;;;;5008248;28;20101;-68
2023/10/14 03:35:54;;;;;;;19.00;3.83;;;;;;;;;;5001165;28;20018;-64
2023/10/14 03:38:25;;;;;;;9.95;3.47;;;;;;;;;;5009881;28;20045;-67
2023/10/14 03:41:03;;;;;;;12.70;4.15;;;;;;;;;;5005359;28;20030;-67
2023/10/14 03:43:29;;;;;;;18.38;3.70;;;;;;;;;;5004165;28;20018;-65
2023/10/14 03:46:03;;;;;;;15.95;4.07;;;;;;;;;;5004965;28;20506;-65
2023/10/14 03:48:45;;;;;;;13.23;3.30;;;;;;;;;;5006243;28;20022;-65
2023/10/14 03:51:11;;;;;;;14.77;3.13;;;;;;;;;;5004103;28;20030;-65
2023/10/14 03:53:36;;;;;;;12.63;3.80;;;;;;;;;;5008561;28;20026;-66
2023/10/14 03:56:03;;;;;;;9.50;3.30;;;;;;;;;;4999056;28;20042;-64
2023/10/14 03:58:31;;;;;;;23.20;3.58;;;;;;;;;;5007706;28;20247;-66
2023/10/14 04:00:57;;;;;;;11.05;3.40;;;;;;;;;;5000414;28;20029;-66
2023/10/14 04:03:42;;;;;;;7.45;3.45;;;;;;;;;;5005628;28;20026;-66
2023/10/14 04:06:08;;;;;;;14.20;3.80;;;;;;;;;;5006261;28;20025;-67
2023/10/14 04:08:39;;;;;;;11.02;3.97;;;;;;;;;;5002557;28;20036;-63
2023/10/14 04:11:14;;;;;;;10.88;3.28;;;;;;;;;;5004656;28;20053;-64
2023/10/14 04:13:58;;;;;;;7.00;3.25;;;;;;;;;;4999803;28;20511;-66
2023/10/14 04:19:44;;;;;;;10.73;3.58;;;;;;;;;;5007154;28;20105;-65
2023/10/14 04:25:07;;;;;;;7.50;3.17;;;;;;;;;;5007067;28;20030;-64
2023/10/14 04:30:21;;;;;;;11.85;3.53;;;;;;;;;;5003099;28;20034;-65
2023/10/14 04:32:48;;;;;;;10.20;3.28;;;;;;;;;;5005534;28;20026;-65
2023/10/14 04:35:13;;;;;;;6.85;2.70;;;;;;;;;;4999991;28;20046;-65
2023/10/14 04:37:51;;;;;;;7.40;3.33;;;;;;;;;;5005618;28;20054;-73
2023/10/14 04:45:52;;;;;;;13.85;3.47;;;;;;;;;;5002724;28;20030;-67
2023/10/14 04:51:21;;;;;;;10.88;3.70;;;;;;;;;;4977697;28;20038;-67
2023/10/14 04:53:46;;;;;;;15.02;3.90;;;;;;;;;;5005619;28;20047;-66
2023/10/14 04:56:11;;;;;;;10.30;3.70;;;;;;;;;;5001464;28;20057;-66
2023/10/14 04:58:40;;;;;;;11.70;3.53;;;;;;;;;;5008651;28;20036;-63
2023/10/14 05:01:09;;;;;;;10.82;3.95;;;;;;;;;;5002380;28;20025;-63
2023/10/14 05:03:34;;;;;;;16.25;3.85;;;;;;;;;;5003767;28;20042;-66
2023/10/14 05:08:44;;;;;;;10.20;3.58;;;;;;;;;;5005090;28;20418;-67
2023/10/14 05:11:12;;;;;;;12.80;4.00;;;;;;;;;;5008646;28;20029;-66
2023/10/14 05:13:39;;;;;;;17.13;3.80;;;;;;;;;;5002409;28;20022;-64
2023/10/14 05:16:15;;;;;;;11.93;3.95;;;;;;;;;;5006870;28;20026;-67
2023/10/14 05:18:43;;;;;;;10.35;3.97;;;;;;;;;;5005870;28;20020;-66
2023/10/14 05:21:34;;;;;;;10.75;3.53;;;;;;;;;;5007869;28;20497;-66
2023/10/14 05:23:59;;;;;;;12.15;3.95;;;;;;;;;;5002889;28;20510;-66
2023/10/14 05:26:27;;;;;;;10.55;3.42;;;;;;;;;;5001702;28;20494;-66
2023/10/14 05:28:53;;;;;;;9.52;3.83;;;;;;;;;;5005929;28;20108;-65
2023/10/14 05:31:18;;;;;;;19.75;3.67;;;;;;;;;;5004256;28;20204;-65
2023/10/14 05:33:43;;;;;;;13.82;4.00;;;;;;;;;;5007630;28;20022;-65
2023/10/14 05:36:09;;;;;;;11.25;4.22;;;;;;;;;;5002533;28;20030;-68
2023/10/14 05:38:34;;;;;;;15.75;2.90;;;;;;;;;;5009724;28;20029;-66
2023/10/14 05:41:00;;;;;;;7.13;1.80;;;;;;;;;;5005548;28;20026;-68
2023/10/14 05:43:25;;;;;;;12.48;2.28;;;;;;;;;;5004807;28;20029;-66
2023/10/14 05:45:53;;;;;;;6.93;1.63;;;;;;;;;;5004299;28;20026;-67
2023/10/14 05:48:26;;;;;;;14.02;2.15;;;;;;;;;;5014059;28;20013;-66
2023/10/14 05:50:52;;;;;;;11.35;2.03;;;;;;;;;;5017058;28;20096;-66
2023/10/14 05:53:17;;;;;;;5.25;1.63;;;;;;;;;;5010368;28;20013;-66
2023/10/14 05:55:47;;;;;;;4.45;1.33;;;;;;;;;;5000345;28;20073;-67
2023/10/14 05:58:12;;;;;;;7.97;1.73;;;;;;;;;;5008185;28;20465;-67
2023/10/14 06:00:38;;;;;;;3.30;1.30;;;;;;;;;;5000608;28;20024;-66
2023/10/14 06:03:06;;;;;;;8.57;1.40;;;;;;;;;;5008558;28;20100;-65
2023/10/14 06:05:32;;;;;;;3.45;1.13;;;;;;;;;;4985972;28;20018;-67
2023/10/14 06:08:00;;;;;;;3.10;1.00;;;;;;;;;;5005452;28;20022;-65
2023/10/14 06:10:29;;;;;;;1.77;0.80;;;;;;;;;;5001145;28;20018;-67
2023/10/14 06:12:56;;;;;;;4.28;0.90;;;;;;;;;;5005827;28;20547;-65
2023/10/14 06:15:21;;;;;;;7.05;1.20;;;;;;;;;;4998767;28;20021;-67
2023/10/14 06:17:55;;;;;;;1.77;0.75;;;;;;;;;;5009352;28;20397;-66
2023/10/14 06:20:21;;;;;;;2.67;0.75;;;;;;;;;;4997710;28;20022;-66
2023/10/14 06:22:47;;;;;;;3.65;0.80;;;;;;;;;;5008375;28;20487;-67
2023/10/14 06:25:15;;;;;;;16.52;1.63;;;;;;;;;;5003895;28;20029;-67
2023/10/14 06:27:45;;;;;;;5.55;1.13;;;;;;;;;;5014464;28;20055;-66
2023/10/14 06:30:18;;;;;;;7.38;1.48;;;;;;;;;;5004068;28;20109;-66
2023/10/14 06:32:43;;;;;;;4.65;1.33;;;;;;;;;;5005287;28;20037;-67
2023/10/14 06:35:09;;;;;;;3.65;0.93;;;;;;;;;;5007201;28;20105;-65
2023/10/14 06:37:41;;;;;;;4.55;0.93;;;;;;;;;;5010889;28;20105;-68
2023/10/14 06:40:11;;;;;;;1.77;0.73;;;;;;;;;;5009185;28;20018;-64
2023/10/14 06:42:40;;;;;;;2.45;0.63;;;;;;;;;;5015946;28;20021;-66
2023/10/14 06:45:05;;;;;;;1.30;0.65;;;;;;;;;;5004477;28;20018;-67
2023/10/14 06:47:31;;;;;;;2.95;0.63;;;;;;;;;;5008713;28;20037;-66
2023/10/14 06:49:56;;;;;;;2.00;0.70;;;;;;;;;;5011180;28;20026;-66
2023/10/14 06:52:21;;;;;;;1.42;0.90;;;;;;;;;;5008640;28;20028;-68
2023/10/14 06:54:47;;;;;;;3.42;0.88;;;;;;;;;;4998965;28;20029;-67
2023/10/14 06:57:14;;;;;;;1.23;0.70;;;;;;;;;;5004292;28;20025;-68
2023/10/14 06:59:39;;;;;;;5.28;0.93;;;;;;;;;;5009051;28;20531;-67
2023/10/14 07:02:05;;;;;;;5.95;0.90;;;;;;;;;;5005089;28;20101;-66
2023/10/14 07:04:34;;;;;;;2.33;0.65;;;;;;;;;;5001319;28;20013;-64
2023/10/14 07:07:07;;;;;;;3.53;0.75;;;;;;;;;;5004963;28;20025;-65
2023/10/14 07:09:32;;;;;;;4.22;0.75;;;;;;;;;;5009551;28;20072;-64
2023/10/14 07:11:58;;;;;;;9.18;1.38;;;;;;;;;;5003249;28;20018;-65
2023/10/14 07:14:23;;;;;;;3.03;0.85;;;;;;;;;;5010261;28;20100;-68
2023/10/14 07:16:50;;;;;;;3.30;0.88;;;;;;;;;;5010499;28;20516;-66
2023/10/14 07:19:17;;;;;;;3.78;1.00;;;;;;;;;;5009664;28;20021;-69
2023/10/14 07:21:43;;;;;;;2.05;0.68;;;;;;;;;;5006714;28;20524;-67
2023/10/14 07:24:08;;;;;;;4.40;0.90;;;;;;;;;;5008775;28;20030;-67
2023/10/14 07:26:39;;;;;;;1.30;0.60;;;;;;;;;;5008141;28;20105;-66
2023/10/14 07:29:07;;;;;;;2.72;0.73;;;;;;;;;;5006057;28;20096;-66
2023/10/14 07:31:34;;;;;;;1.75;0.82;;;;;;;;;;5008012;28;20060;-65
2023/10/14 07:34:08;;;;;;;8.13;1.17;;;;;;;;;;4996810;28;20034;-69
2023/10/14 07:36:34;;;;;;;6.13;1.25;;;;;;;;;;5008469;28;20032;-64
2023/10/14 07:41:43;;;;;;;26.25;1.33;;;;;;;;;;5007236;28;20137;-69
2023/10/14 07:44:09;;;;;;;6.88;1.27;;;;;;;;;;4999085;28;20033;-67
2023/10/14 07:46:35;;;;;;;2.33;1.17;;;;;;;;;;5001865;28;20038;-66
2023/10/14 07:49:02;;;;;;;5.20;1.10;;;;;;;;;;5008192;28;20028;-68
2023/10/14 07:51:27;;;;;;;1.85;0.85;;;;;;;;;;5007094;28;20461;-69
2023/10/14 07:53:52;;;;;;;3.75;1.58;;;;;;;;;;5005668;28;20462;-67
2023/10/14 07:56:18;;;;;;;4.18;1.17;;;;;;;;;;5003651;28;20026;-68
2023/10/14 07:58:43;;;;;;;7.32;1.25;;;;;;;;;;5009241;28;20018;-68
2023/10/14 08:01:15;;;;;;;5.93;1.52;;;;;;;;;;4985514;28;20412;-69
2023/10/14 08:03:40;;;;;;;10.57;1.73;;;;;;;;;;5008376;28;20022;-69
2023/10/14 08:06:08;;;;;;;5.28;1.02;;;;;;;;;;5003509;28;20396;-68
2023/10/14 08:08:42;;;;;;;8.40;1.40;;;;;;;;;;5007734;28;20076;-69
2023/10/14 08:11:07;;;;;;;4.82;1.40;;;;;;;;;;5006691;28;20087;-69
2023/10/14 08:13:33;;;;;;;4.22;1.30;;;;;;;;;;5007738;28;20030;-70
2023/10/14 08:15:59;;;;;;;11.77;1.65;;;;;;;;;;5001065;28;20018;-67
2023/10/14 08:18:24;;;;;;;5.32;1.25;;;;;;;;;;5002757;28;20563;-69
2023/10/14 08:20:55;;;;;;;6.20;1.58;;;;;;;;;;5002505;28;20105;-69
2023/10/14 08:23:24;;;;;;;5.00;1.40;;;;;;;;;;5015364;28;20101;-69
2023/10/14 08:25:54;;;;;;;3.10;1.35;;;;;;;;;;5000831;28;20521;-68
2023/10/14 08:28:23;;;;;;;5.93;1.60;;;;;;;;;;5003977;28;20017;-68
2023/10/14 08:30:50;;;;;;;;;;;;;;;;;;5004770;28;20041;-68
2023/10/14 08:33:16;;;;;;;6.03;1.83;;;;;;;;;;5011491;28;19921;-69
2023/10/14 08:35:42;;;;;;;9.65;1.60;;;;;;;;;;5017763;28;20117;-69
2023/10/14 08:38:11;;;;;;;6.97;1.42;;;;;;;;;;5007878;28;20022;-66
2023/10/14 08:40:36;;;;;;;9.23;1.75;;;;;;;;;;5012002;28;20014;-70
2023/10/14 08:43:05;;;;;;;9.60;1.17;;;;;;;;;;5008721;28;20088;-68
2023/10/14 08:45:35;;;;;;;7.45;1.50;;;;;;;;;;5009015;28;20018;-67
2023/10/14 08:48:01;;;;;;;8.20;1.10;;;;;;;;;;5009637;28;20037;-67
2023/10/14 08:50:29;;;;;;;5.85;1.40;;;;;;;;;;5002910;28;20026;-68
2023/10/14 08:52:56;;;;;;;7.32;1.38;;;;;;;;;;5002146;28;20420;-68
2023/10/14 08:55:21;;;;;;;5.70;0.95;;;;;;;;;;5008016;28;20429;-67
2023/10/14 08:57:48;;;;;;;10.35;1.55;;;;;;;;;;5004294;28;20019;-68
2023/10/14 09:00:20;;;;;;;6.47;1.70;;;;;;;;;;5011011;28;20056;-67
2023/10/14 09:02:49;;;;;;;9.13;1.52;;;;;;;;;;5011641;28;20045;-68
2023/10/14 09:05:16;;;;;;;;;;;;;;;;;;5011465;28;20026;-68
2023/10/14 09:07:43;;;;;;;9.63;1.77;;;;;;;;;;5004943;28;19906;-66
2023/10/14 09:10:09;;;;;;;12.27;1.52;;;;;;;;;;5010333;28;20033;-68
2023/10/14 09:12:34;;;;;;;8.18;1.52;;;;;;;;;;5005682;28;20034;-69
2023/10/14 09:14:59;;;;;;;9.88;1.73;;;;;;;;;;5006366;28;20110;-65
2023/10/14 09:17:25;;;;;;;7.35;1.30;;;;;;;;;;5005818;28;20489;-68
2023/10/14 09:19:53;;;;;;;11.77;1.73;;;;;;;;;;5004021;28;20034;-68
2023/10/14 09:22:22;;;;;;;8.15;1.45;;;;;;;;;;5011422;28;20473;-68
2023/10/14 09:24:49;;;;;;;8.00;1.73;;;;;;;;;;5008942;28;20120;-67
2023/10/14 09:27:14;;;;;;;9.23;1.98;;;;;;;;;;5012277;28;20018;-76
2023/10/14 09:29:39;;;;;;;11.32;1.58;;;;;;;;;;5009920;28;20429;-69
2023/10/14 09:32:05;;;;;;;13.30;1.25;;;;;;;;;;5002973;28;20139;-68
2023/10/14 09:34:30;;;;;;;9.63;1.50;;;;;;;;;;5003676;28;20034;-66
2023/10/14 09:36:55;;;;;;;5.43;1.05;;;;;;;;;;5003708;28;20482;-68
2023/10/14 09:39:24;;;;;;;15.93;1.90;;;;;;;;;;5009227;28;20075;-68
2023/10/14 09:41:50;;;;;;;;;;;;;;;;;;5000996;28;20028;-66
2023/10/14 09:44:17;;;;;;;6.38;1.50;;;;;;;;;;5005282;28;20312;-68
2023/10/14 09:46:43;;;;;;;16.33;1.58;;;;;;;;;;5014808;28;20017;-65
2023/10/14 09:49:10;;;;;;;7.45;1.40;;;;;;;;;;5004842;28;20029;-68
2023/10/14 09:51:36;;;;;;;10.52;1.42;;;;;;;;;;5005701;28;20030;-67
2023/10/14 09:54:03;;;;;;;15.13;1.63;;;;;;;;;;5020282;28;20021;-68
2023/10/14 09:56:28;;;;;;;7.80;1.30;;;;;;;;;;4992775;28;20475;-68
2023/10/14 09:58:53;;;;;;;11.98;1.45;;;;;;;;;;5008351;28;20113;-68
2023/10/14 10:01:19;;;;;;;6.80;1.35;;;;;;;;;;5010049;28;20057;-67
2023/10/14 10:03:48;;;;;;;5.10;1.52;;;;;;;;;;5000877;28;20044;-67
2023/10/14 10:06:35;;;;;;;7.85;1.17;;;;;;;;;;5000076;28;20103;-67
2023/10/14 10:09:20;;;;;;;15.10;1.75;;;;;;;;;;4999274;28;20045;-67
2023/10/14 10:11:46;;;;;;;10.05;2.22;;;;;;;;;;5002065;28;20398;-66
2023/10/14 10:14:12;;;;;;;16.02;1.73;;;;;;;;;;5008533;28;20137;-66
2023/10/14 10:16:40;;;;;;;5.10;1.35;;;;;;;;;;4999439;28;20094;-64
2023/10/14 10:19:08;;;;;;;10.80;1.80;;;;;;;;;;5007345;28;20022;-65
2023/10/14 10:21:34;;;;;;;14.27;2.60;;;;;;;;;;5009089;28;20040;-67
2023/10/14 10:24:16;;;;;;;7.63;1.23;;;;;;;;;;5014007;28;20353;-67
2023/10/14 10:27:00;;;;;;;5.00;0.95;;;;;;;;;;5002484;28;20022;-68
2023/10/14 10:29:25;;;;;;;14.65;1.55;;;;;;;;;;5007712;28;20401;-68
2023/10/14 10:32:06;;;;;;;9.88;1.88;;;;;;;;;;4999920;28;20021;-66
2023/10/14 10:34:35;;;;;;;6.20;1.30;;;;;;;;;;5002315;28;20029;-68
2023/10/14 10:37:03;;;;;;;7.20;1.80;;;;;;;;;;4996241;28;20036;-67
2023/10/14 10:39:29;;;;;;;;;;;;;;;;;;5007675;28;20026;-69
2023/10/14 10:41:54;;;;;;;6.82;0.93;;;;;;;;;;5009625;28;19996;-68
2023/10/14 10:44:19;;;;;;;9.10;1.08;;;;;;;;;;5001314;28;20291;-67
2023/10/14 10:46:48;;;;;;;6.50;1.00;;;;;;;;;;5004464;28;20413;-67
2023/10/14 10:49:14;;;;;;;7.72;1.77;;;;;;;;;;5009094;28;20029;-66
2023/10/14 10:51:58;;;;;;;6.28;1.38;;;;;;;;;;5015049;28;20029;-68
2023/10/14 10:54:26;;;;;;;6.65;1.20;;;;;;;;;;4997664;28;20024;-67
2023/10/14 10:56:53;;;;;;;4.57;1.33;;;;;;;;;;5006539;28;20026;-66
2023/10/14 10:59:18;;;;;;;6.07;1.08;;;;;;;;;;5017882;28;20159;-64
2023/10/14 11:01:45;;;;;;;2.88;1.00;;;;;;;;;;5006034;28;20022;-66
2023/10/14 11:04:12;;;;;;;8.50;1.27;;;;;;;;;;5005593;28;20034;-67
2023/10/14 11:06:38;;;;;;;8.70;1.52;;;;;;;;;;5004459;28;20036;-66
2023/10/14 11:09:04;;;;;;;9.48;1.10;;;;;;;;;;5008245;28;20467;-67
2023/10/14 11:11:30;;;;;;;6.90;1.52;;;;;;;;;;5003314;28;20044;-67
2023/10/14 11:13:56;;;;;;;7.93;1.35;;;;;;;;;;5005953;28;20481;-67
2023/10/14 11:16:22;;;;;;;8.20;1.67;;;;;;;;;;5001391;28;20060;-67
2023/10/14 11:18:50;;;;;;;6.70;1.30;;;;;;;;;;5001781;28;20028;-67
2023/10/14 11:21:16;;;;;;;7.07;1.05;;;;;;;;;;5002969;28;20397;-65
2023/10/14 11:23:42;;;;;;;6.85;1.45;;;;;;;;;;5014491;28;20029;-64
2023/10/14 11:26:11;;;;;;;8.57;1.33;;;;;;;;;;5001420;28;20025;-68
2023/10/14 11:28:37;;;;;;;5.40;1.20;;;;;;;;;;5002867;28;20021;-64
2023/10/14 11:31:04;;;;;;;9.35;1.58;;;;;;;;;;5013433;28;20034;-67
2023/10/14 11:33:33;;;;;;;3.92;1.10;;;;;;;;;;4989477;28;20028;-66
2023/10/14 11:35:58;;;;;;;8.00;1.02;;;;;;;;;;5016856;28;20082;-65
2023/10/14 11:38:25;;;;;;;8.45;1.48;;;;;;;;;;4980983;28;20102;-66
2023/10/14 11:40:51;;;;;;;4.40;1.30;;;;;;;;;;5008396;28;20029;-66
2023/10/14 11:43:17;;;;;;;12.77;1.38;;;;;;;;;;5003860;28;20505;-66
2023/10/14 11:45:45;;;;;;;8.13;1.15;;;;;;;;;;5001536;28;20026;-68
2023/10/14 11:48:20;;;;;;;4.53;1.15;;;;;;;;;;5003828;28;20041;-68
2023/10/14 11:50:47;;;;;;;6.28;1.08;;;;;;;;;;5004018;28;20061;-67
2023/10/14 11:53:13;;;;;;;11.77;1.20;;;;;;;;;;5005959;28;20030;-66
2023/10/14 11:55:39;;;;;;;8.48;1.30;;;;;;;;;;5013225;28;20020;-65
2023/10/14 11:58:04;;;;;;;8.40;1.10;;;;;;;;;;5000055;28;20011;-68
2023/10/14 12:00:30;;;;;;;6.70;1.73;;;;;;;;;;5004471;28;20101;-68
2023/10/14 12:02:56;;;;;;;11.02;1.67;;;;;;;;;;5022055;28;20030;-67
2023/10/14 12:05:21;;;;;;;6.45;1.17;;;;;;;;;;5001038;28;20531;-67
2023/10/14 12:07:51;;;;;;;8.05;1.80;;;;;;;;;;5005131;28;20090;-67
2023/10/14 12:10:17;;;;;;;6.65;1.13;;;;;;;;;;5001446;28;20022;-68
2023/10/14 12:12:42;;;;;;;6.82;1.55;;;;;;;;;;5002567;28;20124;-66
2023/10/14 12:15:08;;;;;;;6.78;1.23;;;;;;;;;;5005668;28;20014;-66
2023/10/14 12:17:36;;;;;;;9.95;1.40;;;;;;;;;;4997923;28;20100;-67
2023/10/14 12:20:06;;;;;;;11.20;1.50;;;;;;;;;;5007795;28;20032;-66
2023/10/14 12:22:32;;;;;;;7.60;1.30;;;;;;;;;;5004653;28;20026;-66
2023/10/14 12:24:57;;;;;;;8.30;1.25;;;;;;;;;;5008299;28;20029;-69
2023/10/14 12:27:25;;;;;;;9.60;1.40;;;;;;;;;;5001151;28;20022;-67
2023/10/14 12:29:51;;;;;;;10.40;1.67;;;;;;;;;;5006359;28;20060;-70
2023/10/14 12:32:17;;;;;;;3.83;0.82;;;;;;;;;;4988929;28;20502;-67
2023/10/14 12:34:43;;;;;;;6.18;1.13;;;;;;;;;;5003227;28;20021;-67
2023/10/14 12:37:18;;;;;;;8.60;1.48;;;;;;;;;;5021439;28;20010;-67
2023/10/14 12:39:44;;;;;;;4.85;1.05;;;;;;;;;;5009238;28;20527;-67
2023/10/14 12:42:16;;;;;;;7.28;1.20;;;;;;;;;;5003055;28;20058;-67
2023/10/14 12:44:41;;;;;;;5.30;1.30;;;;;;;;;;5000408;28;20026;-64
2023/10/14 12:47:15;;;;;;;5.53;1.10;;;;;;;;;;5001066;28;20125;-67
2023/10/14 12:49:40;;;;;;;5.20;0.98;;;;;;;;;;5002827;28;20024;-67
2023/10/14 12:52:12;;;;;;;7.53;1.38;;;;;;;;;;5002191;28;20030;-67
2023/10/14 12:54:40;;;;;;;6.53;1.40;;;;;;;;;;5005579;28;20021;-67
2023/10/14 12:57:08;;;;;;;5.95;1.20;;;;;;;;;;4998241;28;20494;-65
2023/10/14 12:59:36;;;;;;;7.32;1.30;;;;;;;;;;5004927;28;20026;-64
2023/10/14 13:02:03;;;;;;;7.03;1.65;;;;;;;;;;5005231;28;20187;-69
2023/10/14 13:04:28;;;;;;;5.65;1.20;;;;;;;;;;5004072;28;20028;-67
2023/10/14 13:06:54;;;;;;;14.13;2.20;;;;;;;;;;5006600;28;20034;-68
2023/10/14 13:09:19;;;;;;;9.50;1.27;;;;;;;;;;4988871;28;20018;-66
2023/10/14 13:11:45;;;;;;;8.88;1.48;;;;;;;;;;5000001;28;20048;-64
2023/10/14 13:14:11;;;;;;;15.80;1.10;;;;;;;;;;4990270;28;20026;-68
2023/10/14 13:16:36;;;;;;;5.75;1.10;;;;;;;;;;4999525;28;20077;-68
2023/10/14 13:19:01;;;;;;;5.65;1.00;;;;;;;;;;5005375;28;20029;-67
2023/10/14 13:21:30;;;;;;;5.65;1.02;;;;;;;;;;5007347;28;20030;-67
2023/10/14 13:23:55;;;;;;;6.93;1.38;;;;;;;;;;5011979;28;20026;-65
2023/10/14 13:26:21;;;;;;;7.72;1.20;;;;;;;;;;5004754;28;20033;-68
2023/10/14 13:28:50;;;;;;;3.47;1.15;;;;;;;;;;5022806;28;20025;-66
2023/10/14 13:31:15;;;;;;;;;;;;;;;;;;5006187;23;20034;-67
2023/10/14 13:33:47;;;;;;;3.88;1.30;;;;;;;;;;5010364;28;19917;-67
2023/10/14 13:36:13;;;;;;;6.03;1.30;;;;;;;;;;5008623;28;20489;-67
2023/10/14 13:38:39;;;;;;;10.02;1.45;;;;;;;;;;5000807;28;20432;-66
2023/10/14 13:41:05;;;;;;;5.15;1.25;;;;;;;;;;5006822;28;20030;-65
2023/10/14 13:43:30;;;;;;;5.20;1.08;;;;;;;;;;4994656;28;20100;-65
2023/10/14 13:45:55;;;;;;;8.60;1.63;;;;;;;;;;4996007;28;20034;-66
2023/10/14 13:48:21;;;;;;;5.20;0.90;;;;;;;;;;4995588;28;20041;-66
2023/10/14 13:50:46;;;;;;;5.78;0.95;;;;;;;;;;4993986;28;20026;-65
2023/10/14 13:53:18;;;;;;;8.52;1.88;;;;;;;;;;4991058;28;20026;-67
2023/10/14 13:55:44;;;;;;;6.82;1.40;;;;;;;;;;4988026;28;20039;-65
2023/10/14 13:58:12;;;;;;;5.50;1.80;;;;;;;;;;4988211;28;20034;-68
2023/10/14 14:00:39;;;;;;;9.93;1.42;;;;;;;;;;4997760;28;20029;-66
2023/10/14 14:03:08;;;;;;;9.07;1.05;;;;;;;;;;4996476;28;20029;-67
2023/10/14 14:05:34;;;;;;;5.43;0.90;;;;;;;;;;4971226;28;20033;-67
2023/10/14 14:07:59;;;;;;;6.13;1.20;;;;;;;;;;4998307;28;20430;-67
2023/10/14 14:10:25;;;;;;;10.13;1.10;;;;;;;;;;4989257;28;20093;-66
2023/10/14 14:12:53;;;;;;;6.57;1.05;;;;;;;;;;4994681;28;20106;-67
2023/10/14 14:15:18;;;;;;;5.57;0.98;;;;;;;;;;4989205;28;20019;-65
2023/10/14 14:17:44;;;;;;;5.10;1.55;;;;;;;;;;4993133;28;20025;-68
2023/10/14 14:20:11;;;;;;;4.55;1.02;;;;;;;;;;4990598;28;20076;-67
2023/10/14 14:22:36;;;;;;;8.52;1.58;;;;;;;;;;4993716;28;20044;-64
2023/10/14 14:25:02;;;;;;;5.57;1.38;;;;;;;;;;5000134;28;20097;-66
2023/10/14 14:27:27;;;;;;;6.80;1.48;;;;;;;;;;4990490;28;20474;-67
2023/10/14 14:29:55;;;;;;;7.75;1.20;;;;;;;;;;4989242;28;20018;-67
2023/10/14 14:32:20;;;;;;;6.65;1.13;;;;;;;;;;4969491;28;20093;-65
2023/10/14 14:34:46;;;;;;;5.03;1.40;;;;;;;;;;4994715;28;20034;-63
2023/10/14 14:37:12;;;;;;;6.60;1.58;;;;;;;;;;4986396;28;20059;-68
2023/10/14 14:39:40;;;;;;;9.90;1.58;;;;;;;;;;4990921;28;20026;-67
2023/10/14 14:42:10;;;;;;;10.68;2.05;;;;;;;;;;4995412;28;20026;-66
2023/10/14 14:44:35;;;;;;;12.23;1.33;;;;;;;;;;4990530;28;20401;-66
2023/10/14 14:47:00;;;;;;;8.90;2.03;;;;;;;;;;4990831;28;20040;-66
2023/10/14 14:49:26;;;;;;;7.63;1.20;;;;;;;;;;4987326;28;20069;-66
2023/10/14 14:51:51;;;;;;;7.55;1.25;;;;;;;;;;4996683;28;20379;-68
2023/10/14 14:54:18;;;;;;;7.13;2.05;;;;;;;;;;4993097;28;20038;-65
2023/10/14 14:56:44;;;;;;;11.63;2.03;;;;;;;;;;4996699;28;20022;-66
2023/10/14 14:59:13;;;;;;;9.38;1.27;;;;;;;;;;4990298;28;20466;-66
2023/10/14 15:01:40;;;;;;;6.22;1.20;;;;;;;;;;4998007;28;20500;-67
2023/10/14 15:04:07;;;;;;;8.90;1.60;;;;;;;;;;4990140;28;20045;-66
2023/10/14 15:06:32;;;;;;;8.32;1.55;;;;;;;;;;4991124;28;20036;-68
2023/10/14 15:08:58;;;;;;;7.82;1.40;;;;;;;;;;4990113;28;20041;-66
2023/10/14 15:11:25;;;;;;;10.35;1.98;;;;;;;;;;5001823;28;20022;-66
2023/10/14 15:13:50;;;;;;;15.07;2.55;;;;;;;;;;4992674;28;20067;-68
2023/10/14 15:16:16;;;;;;;14.55;1.60;;;;;;;;;;4998561;28;20010;-66
2023/10/14 15:18:41;;;;;;;7.13;1.25;;;;;;;;;;4993010;28;20041;-67
2023/10/14 15:21:06;;;;;;;26.42;3.00;;;;;;;;;;4998096;28;20022;-64